Time;durP1;ratioP1;P1;durP2;ratioP2;P2;SDS_P1;SDS_P2;PMS_P1;PMS_P2;Temp;Humidity;BMP_temperature;BMP_pressure;BME280_temperature;BME280_humidity;BME280_pressure;Samples;Min_cycle;Max_cycle;Signal;HPM_P1;HPM_P2
2022/02/20 00:01:53;;;;;;;;;;;12.90;70.00;;;;;;4980097;28;19906;-64
2022/02/20 00:04:18;;;;;;;;;;;12.90;70.00;;;;;;4980146;28;19984;-64
2022/02/20 00:06:44;;;;;;;;;;;12.90;70.10;;;;;;4980102;28;19917;-64
2022/02/20 00:09:10;;;;;;;;;;;12.90;70.00;;;;;;4979433;28;19902;-64
2022/02/20 00:11:36;;;;;;;;;;;12.90;70.10;;;;;;4980043;28;19956;-63
2022/02/20 00:14:01;;;;;;;;;;;12.90;70.10;;;;;;4980012;28;19910;-64
2022/02/20 00:16:27;;;;;;;;;;;12.90;70.00;;;;;;4979933;28;20194;-64
2022/02/20 00:18:53;;;;;;;;;;;12.90;70.00;;;;;;4979965;28;19922;-64
2022/02/20 00:21:18;;;;;;;;;;;12.80;70.00;;;;;;4979919;28;20409;-65
2022/02/20 00:23:44;;;;;;;;;;;12.90;70.00;;;;;;4979700;28;19993;-64
2022/02/20 00:26:09;;;;;;;;;;;12.90;70.10;;;;;;4979864;28;20267;-64
2022/02/20 00:28:35;;;;;;;;;;;12.90;70.10;;;;;;4979794;28;19933;-64
2022/02/20 00:31:01;;;;;;;;;;;12.90;70.00;;;;;;4979700;28;19933;-64
2022/02/20 00:33:26;;;;;;;;;;;12.90;70.10;;;;;;4979678;28;20190;-64
2022/02/20 00:35:52;;;;;;;;;;;12.80;70.00;;;;;;4979692;28;19972;-64
2022/02/20 00:38:17;;;;;;;;;;;12.90;70.00;;;;;;4979542;28;19960;-64
2022/02/20 00:40:43;;;;;;;;;;;12.80;69.90;;;;;;4979582;28;19910;-64
2022/02/20 00:43:09;;;;;;;;;;;12.80;70.00;;;;;;4979524;28;19918;-64
2022/02/20 00:45:35;;;;;;;;;;;12.80;70.00;;;;;;4979472;28;20194;-63
2022/02/20 00:48:01;;;;;;;;;;;12.80;70.00;;;;;;4979517;28;19912;-64
2022/02/20 00:50:27;;;;;;;;;;;12.80;70.10;;;;;;4979381;28;19971;-64
2022/02/20 00:52:53;;;;;;;;;;;12.80;70.10;;;;;;4979386;28;19909;-64
2022/02/20 00:55:18;;;;;;;;;;;12.80;70.00;;;;;;4979342;28;19910;-64
2022/02/20 00:57:44;;;;;;;;;;;12.80;70.10;;;;;;4979233;28;19981;-64
2022/02/20 01:00:11;;;;;;;;;;;12.80;70.00;;;;;;4979230;28;19973;-63
2022/02/20 01:02:36;;;;;;;;;;;12.80;70.10;;;;;;4979105;28;19906;-65
2022/02/20 01:05:02;;;;;;;;;;;12.70;70.00;;;;;;4979215;28;19987;-65
2022/02/20 01:07:28;;;;;;;;;;;12.70;70.00;;;;;;4979351;28;19910;-64
2022/02/20 01:09:54;;;;;;;;;;;12.70;70.00;;;;;;4979116;28;20035;-64
2022/02/20 01:12:19;;;;;;;;;;;12.80;70.10;;;;;;4979028;28;19910;-64
2022/02/20 01:14:45;;;;;;;;;;;12.70;70.00;;;;;;4979021;28;20109;-64
2022/02/20 01:17:11;;;;;;;;;;;12.70;70.00;;;;;;4979076;28;19936;-64
2022/02/20 01:19:37;;;;;;;;;;;12.70;70.00;;;;;;4977886;28;20232;-64
2022/02/20 01:22:03;;;;;;;;;;;12.70;70.70;;;;;;4978853;28;20038;-63
2022/02/20 01:24:29;;;;;;;;;;;12.70;70.00;;;;;;4979102;28;19910;-63
2022/02/20 01:26:54;;;;;;;;;;;12.70;70.20;;;;;;4978878;28;20194;-65
2022/02/20 01:29:22;;;;;;;;;;;12.70;70.10;;;;;;4978798;28;19939;-64
2022/02/20 01:31:48;;;;;;;;;;;12.70;70.10;;;;;;4978793;28;19917;-64
2022/02/20 01:34:14;;;;;;;;;;;12.70;70.20;;;;;;4978799;28;19910;-64
2022/02/20 01:36:39;;;;;;;;;;;12.70;70.20;;;;;;4978758;28;19909;-64
2022/02/20 01:39:05;;;;;;;;;;;12.70;70.20;;;;;;4978634;28;19944;-63
2022/02/20 01:41:30;;;;;;;;;;;12.70;70.30;;;;;;4978281;28;20114;-64
2022/02/20 01:43:56;;;;;;;;;;;12.70;70.20;;;;;;4978795;28;19910;-64
2022/02/20 01:46:22;;;;;;;;;;;12.70;70.20;;;;;;4978651;28;20130;-63
2022/02/20 01:48:48;;;;;;;;;;;12.70;70.20;;;;;;4978560;28;19917;-63
2022/02/20 01:51:14;;;;;;;;;;;12.70;70.10;;;;;;4978584;28;20165;-63
2022/02/20 01:53:40;;;;;;;;;;;12.60;70.10;;;;;;4978588;28;19909;-64
2022/02/20 01:56:06;;;;;;;;;;;12.60;70.20;;;;;;4978441;28;19945;-65
2022/02/20 01:58:31;;;;;;;;;;;12.60;70.80;;;;;;4978550;28;19902;-64
2022/02/20 02:00:59;;;;;;;;;;;12.60;70.20;;;;;;4978434;28;19917;-64
2022/02/20 02:03:24;;;;;;;;;;;12.60;70.30;;;;;;4978303;28;19921;-64
2022/02/20 02:05:50;;;;;;;;;;;12.60;70.20;;;;;;4978372;28;19902;-63
2022/02/20 02:08:17;;;;;;;;;;;12.60;70.30;;;;;;4978354;28;20118;-63
2022/02/20 02:10:43;;;;;;;;;;;12.60;70.30;;;;;;4977146;28;20120;-64
2022/02/20 02:13:09;;;;;;;;;;;12.60;70.30;;;;;;4978323;28;19918;-63
2022/02/20 02:15:35;;;;;;;;;;;12.60;70.30;;;;;;4976971;28;19902;-64
2022/02/20 02:18:01;;;;;;;;;;;12.60;70.30;;;;;;4977939;28;19903;-65
2022/02/20 02:20:27;;;;;;;;;;;12.60;70.30;;;;;;4978189;28;19909;-64
2022/02/20 02:22:52;;;;;;;;;;;12.60;70.20;;;;;;4977347;28;19945;-64
2022/02/20 02:25:18;;;;;;;;;;;12.50;70.20;;;;;;4978141;28;19910;-64
2022/02/20 02:27:43;;;;;;;;;;;12.50;70.20;;;;;;4978180;28;20282;-64
2022/02/20 02:30:10;;;;;;;;;;;12.50;70.20;;;;;;4978195;28;19948;-64
2022/02/20 02:32:36;;;;;;;;;;;12.50;70.90;;;;;;4981019;28;20217;-64
2022/02/20 02:35:02;;;;;;;;;;;12.60;70.30;;;;;;4981580;28;19902;-63
2022/02/20 02:37:27;;;;;;;;;;;12.60;70.30;;;;;;4981442;28;20202;-64
2022/02/20 02:39:53;;;;;;;;;;;12.50;70.30;;;;;;4981472;28;19933;-64
2022/02/20 02:42:19;;;;;;;;;;;12.50;70.30;;;;;;4981194;28;20383;-64
2022/02/20 02:44:45;;;;;;;;;;;12.50;70.40;;;;;;4981333;28;19913;-64
2022/02/20 02:47:10;;;;;;;;;;;12.50;70.40;;;;;;4981341;28;19906;-64
2022/02/20 02:49:37;;;;;;;;;;;12.50;70.30;;;;;;4981813;28;19976;-63
2022/02/20 02:52:03;;;;;;;;;;;12.50;70.40;;;;;;4981279;28;19989;-63
2022/02/20 02:54:28;;;;;;;;;;;12.50;70.30;;;;;;4981225;28;19933;-64
2022/02/20 02:56:54;;;;;;;;;;;12.50;71.00;;;;;;4981165;28;20091;-64
2022/02/20 02:59:20;;;;;;;;;;;12.50;70.40;;;;;;4981164;28;20076;-63
2022/02/20 03:01:46;;;;;;;;;;;12.50;70.40;;;;;;4980897;28;19902;-64
2022/02/20 03:04:12;;;;;;;;;;;12.50;70.40;;;;;;4981133;28;20093;-64
2022/02/20 03:06:38;;;;;;;;;;;12.50;70.40;;;;;;4980950;28;19910;-64
2022/02/20 03:09:04;;;;;;;;;;;12.50;70.40;;;;;;4979687;28;19910;-64
2022/02/20 03:11:30;;;;;;;;;;;12.40;70.30;;;;;;4980910;28;19902;-64
2022/02/20 03:13:56;;;;;;;;;;;12.50;70.40;;;;;;4980938;28;20076;-64
2022/02/20 03:16:22;;;;;;;;;;;12.50;70.40;;;;;;4980925;28;19910;-63
2022/02/20 03:18:48;;;;;;;;;;;12.50;70.30;;;;;;4980835;28;19910;-64
2022/02/20 03:21:13;;;;;;;;;;;12.50;70.30;;;;;;4980814;28;20217;-64
2022/02/20 03:23:39;;;;;;;;;;;12.50;70.30;;;;;;4980704;28;19964;-64
2022/02/20 03:26:05;;;;;;;;;;;12.40;70.80;;;;;;4980759;28;19902;-64
2022/02/20 03:28:30;;;;;;;;;;;12.50;70.40;;;;;;4980711;28;19902;-64
2022/02/20 03:30:56;;;;;;;;;;;12.40;70.30;;;;;;4980669;28;19969;-64
2022/02/20 03:33:21;;;;;;;;;;;12.40;70.30;;;;;;4980621;28;19903;-64
2022/02/20 03:35:47;;;;;;;;;;;12.40;70.30;;;;;;4980557;28;19910;-63
2022/02/20 03:38:13;;;;;;;;;;;12.40;70.40;;;;;;4980643;28;19941;-64
2022/02/20 03:40:38;;;;;;;;;;;12.40;71.10;;;;;;4980789;28;19910;-64
2022/02/20 03:43:04;;;;;;;;;;;12.40;70.50;;;;;;4979357;28;19922;-64
2022/02/20 03:45:30;;;;;;;;;;;12.40;70.40;;;;;;4980436;28;20071;-64
2022/02/20 03:47:55;;;;;;;;;;;12.40;70.40;;;;;;4980433;28;19924;-64
2022/02/20 03:50:22;;;;;;;;;;;12.40;70.50;;;;;;4980389;28;20186;-64
2022/02/20 03:52:48;;;;;;;;;;;12.40;70.40;;;;;;4980378;28;19910;-65
2022/02/20 03:55:14;;;;;;;;;;;12.40;70.40;;;;;;4980309;28;20218;-64
2022/02/20 03:57:40;;;;;;;;;;;12.40;70.40;;;;;;4980301;28;19910;-64
2022/02/20 04:00:10;;;;;;;;;;;12.40;70.40;;;;;;4980201;28;19902;-63
2022/02/20 04:02:39;;;;;;;;;;;12.40;70.40;;;;;;4980144;28;19947;-64
2022/02/20 04:05:05;;;;;;;;;;;12.40;70.40;;;;;;4980129;28;19910;-64
2022/02/20 04:07:31;;;;;;;;;;;12.40;70.40;;;;;;4980178;28;19969;-64
2022/02/20 04:09:56;;;;;;;;;;;12.40;70.50;;;;;;4980055;28;19917;-64
2022/02/20 04:12:22;;;;;;;;;;;12.40;70.50;;;;;;4980305;28;19955;-64
2022/02/20 04:14:48;;;;;;;;;;;12.30;70.50;;;;;;4979970;28;19913;-64
2022/02/20 04:17:13;;;;;;;;;;;12.30;70.40;;;;;;4980029;28;19981;-63
2022/02/20 04:19:39;;;;;;;;;;;12.30;70.50;;;;;;4979922;28;19910;-64
2022/02/20 04:22:04;;;;;;;;;;;12.30;70.50;;;;;;4979830;28;19967;-64
2022/02/20 04:24:30;;;;;;;;;;;12.30;70.50;;;;;;4979864;28;19902;-64
2022/02/20 04:26:55;;;;;;;;;;;12.30;70.50;;;;;;4979832;28;19902;-64
2022/02/20 04:29:21;;;;;;;;;;;12.30;70.50;;;;;;4979819;28;19902;-64
2022/02/20 04:31:47;;;;;;;;;;;12.30;70.40;;;;;;4979730;28;19910;-64
2022/02/20 04:34:12;;;;;;;;;;;12.30;70.50;;;;;;4979681;28;19932;-64
2022/02/20 04:36:38;;;;;;;;;;;12.30;70.50;;;;;;4979529;28;19917;-64
2022/02/20 04:39:04;;;;;;;;;;;12.30;70.50;;;;;;4979625;28;20126;-64
2022/02/20 04:41:30;;;;;;;;;;;12.30;70.60;;;;;;4979356;28;19917;-64
2022/02/20 04:43:57;;;;;;;;;;;12.30;70.60;;;;;;4978269;28;19902;-64
2022/02/20 04:46:22;;;;;;;;;;;12.30;70.50;;;;;;4979526;28;19916;-64
2022/02/20 04:48:48;;;;;;;;;;;12.30;70.60;;;;;;4979421;28;20130;-64
2022/02/20 04:51:13;;;;;;;;;;;12.30;70.50;;;;;;4979422;28;20020;-64
2022/02/20 04:53:39;;;;;;;;;;;12.30;70.50;;;;;;4979200;28;19917;-64
2022/02/20 04:56:05;;;;;;;;;;;12.30;70.50;;;;;;4979341;28;19977;-64
2022/02/20 04:58:31;;;;;;;;;;;12.30;70.60;;;;;;4979323;28;19965;-64
2022/02/20 05:00:56;;;;;;;;;;;12.20;70.50;;;;;;4979286;28;19902;-64
2022/02/20 05:03:22;;;;;;;;;;;12.20;70.60;;;;;;4979208;28;20229;-64
2022/02/20 05:05:47;;;;;;;;;;;12.20;70.60;;;;;;4979173;28;19952;-64
2022/02/20 05:08:13;;;;;;;;;;;12.20;70.60;;;;;;4979141;28;20110;-64
2022/02/20 05:10:39;;;;;;;;;;;12.20;70.60;;;;;;4979149;28;19933;-64
2022/02/20 05:13:04;;;;;;;;;;;12.20;70.60;;;;;;4979086;28;19910;-63
2022/02/20 05:15:30;;;;;;;;;;;12.20;70.50;;;;;;4979088;28;19910;-64
2022/02/20 05:17:55;;;;;;;;;;;12.20;70.50;;;;;;4978960;28;20128;-63
2022/02/20 05:20:21;;;;;;;;;;;12.20;70.50;;;;;;4978977;28;19902;-64
2022/02/20 05:22:47;;;;;;;;;;;12.20;70.50;;;;;;4978874;28;19920;-64
2022/02/20 05:25:13;;;;;;;;;;;12.20;70.50;;;;;;4978962;28;19910;-64
2022/02/20 05:27:42;;;;;;;;;;;12.20;70.50;;;;;;4979159;28;19941;-64
2022/02/20 05:30:09;;;;;;;;;;;12.20;70.50;;;;;;4978779;28;20417;-64
2022/02/20 05:32:34;;;;;;;;;;;12.20;70.50;;;;;;4978757;28;19925;-65
2022/02/20 05:35:00;;;;;;;;;;;12.20;70.50;;;;;;4978768;28;20099;-64
2022/02/20 05:37:25;;;;;;;;;;;12.20;70.50;;;;;;4978708;28;19902;-64
2022/02/20 05:39:51;;;;;;;;;;;12.20;70.50;;;;;;4978793;28;19930;-64
2022/02/20 05:42:17;;;;;;;;;;;12.20;70.50;;;;;;4978432;28;19964;-64
2022/02/20 05:44:42;;;;;;;;;;;12.20;70.50;;;;;;4978704;28;19919;-64
2022/02/20 05:47:09;;;;;;;;;;;12.20;70.50;;;;;;4978597;28;19910;-64
2022/02/20 05:49:35;;;;;;;;;;;12.20;70.50;;;;;;4978520;28;19906;-64
2022/02/20 05:52:01;;;;;;;;;;;12.20;70.50;;;;;;4978549;28;20098;-64
2022/02/20 05:54:26;;;;;;;;;;;12.20;70.60;;;;;;4978521;28;20091;-64
2022/02/20 05:56:52;;;;;;;;;;;12.20;70.60;;;;;;4978461;28;19909;-64
2022/02/20 05:59:17;;;;;;;;;;;12.20;70.60;;;;;;4978400;28;19993;-63
2022/02/20 06:01:43;;;;;;;;;;;12.10;70.50;;;;;;4977087;28;19916;-64
2022/02/20 06:04:09;;;;;;;;;;;12.20;70.50;;;;;;4978418;28;19910;-63
2022/02/20 06:06:34;;;;;;;;;;;12.20;70.50;;;;;;4977734;28;19910;-65
2022/02/20 06:09:00;;;;;;;;;;;12.20;70.50;;;;;;4978358;28;19902;-64
2022/02/20 06:11:26;;;;;;;;;;;12.10;70.50;;;;;;4978295;28;19902;-64
2022/02/20 06:13:51;;;;;;;;;;;12.20;70.50;;;;;;4978341;28;19902;-64
2022/02/20 06:16:17;;;;;;;;;;;12.10;70.40;;;;;;4978215;28;19916;-64
2022/02/20 06:18:43;;;;;;;;;;;12.20;70.40;;;;;;4978216;28;19972;-64
2022/02/20 06:21:08;;;;;;;;;;;12.20;70.40;;;;;;4978150;28;19932;-64
2022/02/20 06:23:34;;;;;;;;;;;12.20;70.40;;;;;;4978067;28;19921;-64
2022/02/20 06:26:00;;;;;;;;;;;12.20;70.50;;;;;;4978137;28;20198;-64
2022/02/20 06:28:26;;;;;;;;;;;12.20;70.40;;;;;;4978102;28;19906;-64
2022/02/20 06:30:51;;;;;;;;;;;12.20;70.40;;;;;;4977984;28;19902;-63
2022/02/20 06:33:17;;;;;;;;;;;12.10;70.30;;;;;;4978017;28;19958;-63
2022/02/20 06:35:43;;;;;;;;;;;12.20;70.40;;;;;;4977989;28;19910;-64
2022/02/20 06:38:08;;;;;;;;;;;12.20;70.40;;;;;;4978155;28;19956;-63
2022/02/20 06:40:34;;;;;;;;;;;12.20;70.30;;;;;;4977867;28;19917;-64
2022/02/20 06:43:00;;;;;;;;;;;12.20;70.30;;;;;;4977701;28;20392;-64
2022/02/20 06:45:25;;;;;;;;;;;12.20;70.30;;;;;;4977783;28;19903;-64
2022/02/20 06:47:51;;;;;;;;;;;12.20;70.40;;;;;;4977831;28;20202;-64
2022/02/20 06:50:17;;;;;;;;;;;12.20;70.40;;;;;;4977748;28;20365;-64
2022/02/20 06:52:43;;;;;;;;;;;12.20;70.30;;;;;;4977823;28;19981;-64
2022/02/20 06:55:11;;;;;;;;;;;12.20;70.30;;;;;;4977750;28;19910;-64
2022/02/20 06:57:37;;;;;;;;;;;12.10;70.30;;;;;;4977669;28;19979;-64
2022/02/20 07:00:06;;;;;;;;;;;12.20;70.40;;;;;;4977699;28;19925;-64
2022/02/20 07:02:32;;;;;;;;;;;12.20;70.30;;;;;;4976246;28;20134;-64
2022/02/20 07:04:58;;;;;;;;;;;12.20;70.30;;;;;;4977550;28;19910;-64
2022/02/20 07:07:23;;;;;;;;;;;12.20;70.20;;;;;;4977623;28;20206;-64
2022/02/20 07:09:49;;;;;;;;;;;12.20;70.20;;;;;;4977535;28;19976;-64
2022/02/20 07:12:14;;;;;;;;;;;12.20;70.10;;;;;;4977475;28;20103;-64
2022/02/20 07:14:40;;;;;;;;;;;12.30;70.00;;;;;;4977487;28;19944;-65
2022/02/20 07:17:05;;;;;;;;;;;12.30;69.80;;;;;;4977420;28;19967;-65
2022/02/20 07:19:31;;;;;;;;;;;12.30;69.80;;;;;;4980069;28;19965;-65
2022/02/20 07:21:57;;;;;;;;;;;12.30;69.70;;;;;;4980586;28;19995;-64
2022/02/20 07:24:22;;;;;;;;;;;12.30;69.80;;;;;;4980617;28;19910;-64
2022/02/20 07:26:48;;;;;;;;;;;12.30;69.70;;;;;;4980506;28;19916;-64
2022/02/20 07:29:14;;;;;;;;;;;12.30;69.70;;;;;;4980559;28;19910;-65
2022/02/20 07:31:40;;;;;;;;;;;12.30;69.60;;;;;;4980543;28;19973;-64
2022/02/20 07:34:06;;;;;;;;;;;12.40;69.50;;;;;;4980418;28;19955;-64
2022/02/20 07:36:31;;;;;;;;;;;12.40;69.20;;;;;;4980492;28;19909;-64
2022/02/20 07:38:57;;;;;;;;;;;12.40;69.20;;;;;;4980356;28;19917;-64
2022/02/20 07:41:22;;;;;;;;;;;12.40;69.40;;;;;;4980231;28;20007;-65
2022/02/20 07:43:48;;;;;;;;;;;12.40;69.40;;;;;;4980228;28;19910;-64
2022/02/20 07:46:15;;;;;;;;;;;12.30;69.50;;;;;;4980288;28;19970;-64
2022/02/20 07:48:40;;;;;;;;;;;12.30;69.60;;;;;;4979011;28;19921;-64
2022/02/20 07:51:06;;;;;;;;;;;12.30;69.70;;;;;;4980208;28;19902;-64
2022/02/20 07:53:32;;;;;;;;;;;12.20;70.30;;;;;;4980170;28;19910;-65
2022/02/20 07:55:57;;;;;;;;;;;12.20;69.80;;;;;;4980132;28;20202;-65
2022/02/20 07:58:23;;;;;;;;;;;12.20;69.80;;;;;;4980135;28;19910;-64
2022/02/20 08:00:49;;;;;;;;;;;12.20;69.90;;;;;;4980124;28;20206;-64
2022/02/20 08:03:15;;;;;;;;;;;12.20;69.90;;;;;;4980010;28;19925;-65
2022/02/20 08:05:40;;;;;;;;;;;12.20;69.90;;;;;;4980034;28;19902;-64
2022/02/20 08:08:06;;;;;;;;;;;12.20;69.90;;;;;;4979970;28;19902;-64
2022/02/20 08:10:32;;;;;;;;;;;12.20;70.10;;;;;;4979932;28;20165;-64
2022/02/20 08:12:58;;;;;;;;;;;12.20;70.00;;;;;;4979886;28;19941;-65
2022/02/20 08:15:24;;;;;;;;;;;12.20;70.00;;;;;;4979852;28;19917;-65
2022/02/20 08:17:49;;;;;;;;;;;12.20;70.10;;;;;;4979787;28;20213;-65
2022/02/20 08:20:16;;;;;;;;;;;12.20;70.10;;;;;;4978585;28;19940;-64
2022/02/20 08:22:42;;;;;;;;;;;12.10;70.00;;;;;;4979671;28;19906;-64
2022/02/20 08:25:08;;;;;;;;;;;12.20;70.10;;;;;;4979663;28;19930;-64
2022/02/20 08:27:34;;;;;;;;;;;12.20;70.10;;;;;;4979623;28;19910;-65
2022/02/20 08:30:01;;;;;;;;;;;12.10;70.10;;;;;;4979140;28;19909;-64
2022/02/20 08:32:26;;;;;;;;;;;12.20;70.10;;;;;;4979581;28;20094;-65
2022/02/20 08:34:52;;;;;;;;;;;12.20;70.10;;;;;;4979606;28;19910;-64
2022/02/20 08:37:17;;;;;;;;;;;12.20;70.10;;;;;;4978295;28;19917;-64
2022/02/20 08:39:43;;;;;;;;;;;12.10;70.10;;;;;;4979564;28;19945;-64
2022/02/20 08:42:09;;;;;;;;;;;12.20;70.10;;;;;;4979537;28;19922;-64
2022/02/20 08:44:36;;;;;;;;;;;12.20;70.10;;;;;;4979382;28;20145;-64
2022/02/20 08:47:02;;;;;;;;;;;12.20;70.10;;;;;;4979413;28;19902;-64
2022/02/20 08:49:28;;;;;;;;;;;12.20;70.10;;;;;;4979286;28;19910;-64
2022/02/20 08:51:54;;;;;;;;;;;12.10;70.10;;;;;;4979343;28;20205;-63
2022/02/20 08:54:19;;;;;;;;;;;12.10;70.10;;;;;;4979308;28;20194;-64
2022/02/20 08:56:45;;;;;;;;;;;12.10;70.00;;;;;;4979229;28;19948;-63
2022/02/20 08:59:10;;;;;;;;;;;12.10;70.00;;;;;;4979228;28;19902;-64
2022/02/20 09:01:36;;;;;;;;;;;12.10;70.10;;;;;;4979112;28;19909;-64
2022/02/20 09:04:04;;;;;;;;;;;12.10;70.10;;;;;;4979081;28;19914;-64
2022/02/20 09:06:30;;;;;;;;;;;12.10;70.20;;;;;;4979099;28;20139;-64
2022/02/20 09:08:56;;;;;;;;;;;12.20;70.10;;;;;;4979095;28;19909;-64
2022/02/20 09:11:23;;;;;;;;;;;12.20;70.10;;;;;;4978946;28;19910;-64
2022/02/20 09:13:49;;;;;;;;;;;12.10;70.10;;;;;;4977595;28;19976;-64
2022/02/20 09:16:14;;;;;;;;;;;12.20;70.00;;;;;;4978901;28;19963;-64
2022/02/20 09:18:40;;;;;;;;;;;12.20;70.00;;;;;;4978880;28;20202;-63
2022/02/20 09:21:05;;;;;;;;;;;12.20;69.90;;;;;;4978767;28;19902;-64
2022/02/20 09:23:31;;;;;;;;;;;12.20;69.50;;;;;;4979069;28;19906;-64
2022/02/20 09:25:57;;;;;;;;;;;11.90;70.10;;;;;;4978763;28;19925;-64
2022/02/20 09:28:22;;;;;;;;;;;11.90;70.70;;;;;;4977651;28;19917;-64
2022/02/20 09:30:48;;;;;;;;;;;11.80;71.00;;;;;;4978636;28;20256;-63
2022/02/20 09:33:14;;;;;;;;;;;11.80;71.20;;;;;;4978749;28;19994;-63
2022/02/20 09:35:39;;;;;;;;;;;11.80;71.20;;;;;;4978690;28;19910;-64
2022/02/20 09:38:05;;;;;;;;;;;11.80;71.20;;;;;;4978620;28;19902;-64
2022/02/20 09:40:31;;;;;;;;;;;11.80;71.10;;;;;;4976345;28;19910;-63
2022/02/20 09:42:57;;;;;;;;;;;11.80;71.20;;;;;;4978317;28;19929;-64
2022/02/20 09:45:23;;;;;;;;;;;11.80;71.30;;;;;;4978513;28;19910;-64
2022/02/20 09:47:48;;;;;;;;;;;11.70;71.30;;;;;;4978383;28;20106;-64
2022/02/20 09:50:14;;;;;;;;;;;11.70;71.30;;;;;;4978496;28;19930;-64
2022/02/20 09:52:40;;;;;;;;;;;11.70;71.40;;;;;;4978423;28;19902;-64
2022/02/20 09:55:06;;;;;;;;;;;11.70;71.40;;;;;;4978416;28;20094;-64
2022/02/20 09:57:32;;;;;;;;;;;11.70;71.40;;;;;;4978329;28;19910;-64
2022/02/20 09:59:58;;;;;;;;;;;11.70;71.40;;;;;;4978254;28;19916;-64
2022/02/20 10:02:26;;;;;;;;;;;11.70;71.30;;;;;;4978258;28;19918;-64
2022/02/20 10:04:53;;;;;;;;;;;11.80;71.30;;;;;;4978307;28;19902;-65
2022/02/20 10:07:26;;;;;;;;;;;11.80;71.20;;;;;;4978148;28;19910;-64
2022/02/20 10:09:52;;;;;;;;;;;11.80;71.20;;;;;;4978187;28;19903;-64
2022/02/20 10:12:21;;;;;;;;;;;11.80;71.00;;;;;;4978170;28;19913;-65
2022/02/20 10:14:47;;;;;;;;;;;11.80;71.10;;;;;;4978126;28;19977;-64
2022/02/20 10:17:13;;;;;;;;;;;11.80;71.10;;;;;;4978145;28;19932;-64
2022/02/20 10:19:51;;;;;;;;;;;11.80;71.00;;;;;;4978083;28;19914;-64
2022/02/20 10:22:31;;;;;;;;;;;11.90;71.00;;;;;;4977917;28;20262;-64
2022/02/20 10:25:07;;;;;;;;;;;11.90;70.80;;;;;;4977977;28;19989;-65
2022/02/20 10:27:33;;;;;;;;;;;12.00;70.70;;;;;;4978031;28;20214;-64
2022/02/20 10:30:08;;;;;;;;;;;12.00;70.50;;;;;;4977965;28;19902;-64
2022/02/20 10:32:34;;;;;;;;;;;12.10;70.50;;;;;;4977992;28;19936;-63
2022/02/20 10:35:06;;;;;;;;;;;12.10;70.10;;;;;;4977903;28;20224;-63
2022/02/20 10:37:32;;;;;;;;;;;12.10;70.20;;;;;;4977907;28;20158;-64
2022/02/20 10:39:58;;;;;;;;;;;12.20;69.90;;;;;;4977833;28;19917;-64
2022/02/20 10:42:26;;;;;;;;;;;12.20;69.60;;;;;;4977707;28;19949;-64
2022/02/20 10:44:57;;;;;;;;;;;12.30;69.60;;;;;;4977772;28;20221;-64
2022/02/20 10:47:23;;;;;;;;;;;12.20;69.50;;;;;;4977763;28;19916;-65
2022/02/20 10:49:49;;;;;;;;;;;12.10;69.80;;;;;;4977685;28;20131;-63
2022/02/20 10:52:19;;;;;;;;;;;12.20;70.00;;;;;;4978663;28;19949;-63
2022/02/20 10:55:08;;;;;;;;;;;12.10;69.90;;;;;;4981024;28;19910;-64
2022/02/20 10:57:41;;;;;;;;;;;12.10;70.10;;;;;;4988499;28;19951;-64
2022/02/20 11:00:13;;;;;;;;;;;12.10;70.00;;;;;;4980963;28;20340;-64
2022/02/20 11:02:40;;;;;;;;;;;12.10;70.00;;;;;;4980835;28;20213;-64
2022/02/20 11:05:05;;;;;;;;;;;12.10;70.00;;;;;;4980889;28;19909;-64
2022/02/20 11:07:34;;;;;;;;;;;12.20;70.10;;;;;;4980834;28;19973;-64
2022/02/20 11:10:00;;;;;;;;;;;12.20;69.70;;;;;;4980802;28;19910;-64
2022/02/20 11:12:26;;;;;;;;;;;12.30;69.80;;;;;;4980738;28;19909;-64
2022/02/20 11:14:52;;;;;;;;;;;12.30;69.70;;;;;;4980729;28;19902;-64
2022/02/20 11:17:20;;;;;;;;;;;12.20;69.70;;;;;;4980694;28;19910;-64
2022/02/20 11:19:47;;;;;;;;;;;12.20;69.80;;;;;;4980618;28;20125;-64
2022/02/20 11:22:12;;;;;;;;;;;12.30;69.50;;;;;;4980616;28;19951;-64
2022/02/20 11:24:39;;;;;;;;;;;12.30;69.50;;;;;;4980489;28;19910;-64
2022/02/20 11:27:05;;;;;;;;;;;12.40;69.20;;;;;;4980531;28;19965;-64
2022/02/20 11:29:31;;;;;;;;;;;12.50;69.00;;;;;;4980528;28;19909;-64
2022/02/20 11:31:57;;;;;;;;;;;12.60;68.50;;;;;;4980393;28;20008;-64
2022/02/20 11:34:24;;;;;;;;;;;12.70;68.10;;;;;;4980486;28;20147;-64
2022/02/20 11:36:58;;;;;;;;;;;12.70;67.90;;;;;;4980380;28;19910;-63
2022/02/20 11:39:24;;;;;;;;;;;12.70;68.20;;;;;;4980355;28;20166;-64
2022/02/20 11:42:05;;;;;;;;;;;12.60;68.40;;;;;;4980159;28;19928;-64
2022/02/20 11:44:43;;;;;;;;;;;12.60;68.40;;;;;;4980306;28;19902;-64
2022/02/20 11:47:09;;;;;;;;;;;12.70;68.40;;;;;;4980220;28;19910;-64
2022/02/20 11:49:34;;;;;;;;;;;12.80;68.30;;;;;;4980169;28;19918;-64
2022/02/20 11:52:11;;;;;;;;;;;12.80;68.40;;;;;;4980148;28;20094;-64
2022/02/20 11:54:38;;;;;;;;;;;12.70;68.30;;;;;;4980158;28;19910;-63
2022/02/20 11:57:23;;;;;;;;;;;12.70;68.40;;;;;;4980175;28;19918;-63
2022/02/20 12:00:05;;;;;;;;;;;12.70;68.60;;;;;;4980036;28;20152;-64
2022/02/20 12:02:31;;;;;;;;;;;12.70;68.70;;;;;;4979903;28;20093;-64
2022/02/20 12:04:56;;;;;;;;;;;12.70;68.60;;;;;;4979136;28;20194;-63
2022/02/20 12:07:31;;;;;;;;;;;12.60;68.70;;;;;;4979972;28;19952;-64
2022/02/20 12:10:15;;;;;;;;;;;12.70;68.70;;;;;;4979774;28;19918;-64
2022/02/20 12:12:41;;;;;;;;;;;12.70;68.60;;;;;;4979801;28;19902;-64
2022/02/20 12:15:27;;;;;;;;;;;12.70;68.70;;;;;;4978428;28;19917;-64
2022/02/20 12:18:02;;;;;;;;;;;12.70;68.70;;;;;;4979851;28;19952;-64
2022/02/20 12:20:49;;;;;;;;;;;12.80;68.30;;;;;;4979566;28;19917;-64
2022/02/20 12:23:29;;;;;;;;;;;12.80;68.40;;;;;;4979614;28;20173;-65
2022/02/20 12:25:56;;;;;;;;;;;12.80;68.40;;;;;;4979595;28;19902;-64
2022/02/20 12:28:36;;;;;;;;;;;12.80;68.50;;;;;;4979630;28;19913;-63
2022/02/20 12:31:09;;;;;;;;;;;12.70;68.50;;;;;;4979577;28;19910;-63
2022/02/20 12:33:36;;;;;;;;;;;12.70;68.50;;;;;;4979437;28;19910;-63
2022/02/20 12:36:03;;;;;;;;;;;12.80;68.40;;;;;;4979498;28;20233;-63
2022/02/20 12:38:29;;;;;;;;;;;12.80;68.40;;;;;;4979391;28;19951;-63
2022/02/20 12:40:54;;;;;;;;;;;12.90;68.20;;;;;;4979383;28;20187;-63
2022/02/20 12:43:20;;;;;;;;;;;12.90;68.00;;;;;;4979127;28;19988;-64
2022/02/20 12:45:46;;;;;;;;;;;13.00;68.20;;;;;;4979259;28;19924;-63
2022/02/20 12:48:14;;;;;;;;;;;13.00;68.00;;;;;;4979229;28;19910;-63
2022/02/20 12:50:42;;;;;;;;;;;13.00;68.20;;;;;;4979247;28;20428;-63
2022/02/20 12:53:08;;;;;;;;;;;13.00;68.20;;;;;;4979097;28;19988;-64
2022/02/20 12:55:35;;;;;;;;;;;12.90;68.30;;;;;;4979100;28;19917;-64
2022/02/20 12:58:05;;;;;;;;;;;12.90;68.30;;;;;;4979041;28;19968;-64
2022/02/20 13:00:32;;;;;;;;;;;12.90;68.40;;;;;;4979078;28;19944;-64
2022/02/20 13:03:00;;;;;;;;;;;12.90;68.50;;;;;;4978957;28;19984;-63
2022/02/20 13:05:28;;;;;;;;;;;12.80;68.50;;;;;;4978931;28;19909;-64
2022/02/20 13:07:55;;;;;;;;;;;12.80;68.60;;;;;;4978979;28;20015;-64
2022/02/20 13:10:31;;;;;;;;;;;12.80;68.70;;;;;;4978837;28;20102;-64
2022/02/20 13:12:59;;;;;;;;;;;12.80;68.70;;;;;;4978820;28;19932;-63
2022/02/20 13:15:26;;;;;;;;;;;12.80;68.80;;;;;;4977511;28;19980;-64
2022/02/20 13:18:03;;;;;;;;;;;12.80;68.90;;;;;;4978838;28;19910;-64
2022/02/20 13:20:29;;;;;;;;;;;12.80;68.80;;;;;;4978764;28;20222;-64
2022/02/20 13:22:55;;;;;;;;;;;12.80;68.90;;;;;;4978665;28;20020;-64
2022/02/20 13:25:20;;;;;;;;;;;12.80;68.90;;;;;;4978722;28;19909;-64
2022/02/20 13:27:46;;;;;;;;;;;12.80;68.80;;;;;;4977386;28;19902;-64
2022/02/20 13:30:24;;;;;;;;;;;12.80;68.80;;;;;;4977641;28;19910;-64
2022/02/20 13:32:50;;;;;;;;;;;12.80;68.70;;;;;;4978647;28;19964;-65
2022/02/20 13:35:28;;;;;;;;;;;12.80;68.80;;;;;;4978533;28;19902;-63
2022/02/20 13:37:54;;;;;;;;;;;12.80;68.80;;;;;;4978564;28;19949;-64
2022/02/20 13:40:19;;;;;;;;;;;12.80;68.90;;;;;;4978578;28;19914;-65
2022/02/20 13:43:06;;;;;;;;;;;12.80;68.90;;;;;;4978274;28;19956;-64
2022/02/20 13:45:34;;;;;;;;;;;12.80;68.70;;;;;;4978375;28;19926;-63
2022/02/20 13:48:00;;;;;;;;;;;12.80;68.70;;;;;;4978361;28;19914;-64
2022/02/20 13:50:25;;;;;;;;;;;12.80;68.80;;;;;;4978326;28;20169;-64
2022/02/20 13:52:51;;;;;;;;;;;12.80;68.70;;;;;;4978292;28;19908;-64
2022/02/20 13:55:20;;;;;;;;;;;12.80;68.70;;;;;;4978169;28;19917;-64
2022/02/20 13:57:45;;;;;;;;;;;12.80;68.80;;;;;;4978246;28;19905;-63
2022/02/20 14:00:11;;;;;;;;;;;12.90;68.70;;;;;;4978160;28;20027;-64
2022/02/20 14:02:41;;;;;;;;;;;12.90;68.70;;;;;;4978061;28;19914;-64
2022/02/20 14:05:07;;;;;;;;;;;12.90;68.50;;;;;;4978424;28;19932;-63
2022/02/20 14:07:38;;;;;;;;;;;12.90;68.50;;;;;;4978226;28;20451;-63
2022/02/20 14:10:06;;;;;;;;;;;12.90;68.50;;;;;;4978190;28;19910;-64
2022/02/20 14:12:35;;;;;;;;;;;12.90;68.60;;;;;;4977986;28;20368;-64
2022/02/20 14:15:01;;;;;;;;;;;12.90;68.70;;;;;;4978011;28;19902;-64